Time;durP1;ratioP1;P1;durP2;ratioP2;P2;SDS_P1;SDS_P2;PMS_P1;PMS_P2;Temp;Humidity;BMP_temperature;BMP_pressure;BME280_temperature;BME280_humidity;BME280_pressure;Samples;Min_cycle;Max_cycle;Signal;HPM_P1;HPM_P2
2022/06/01 00:00:04;;;;;;;25.80;21.58;;;12.30;99.90;;;;;;5054077;28;20052;-63
2022/06/01 00:02:30;;;;;;;25.88;21.35;;;12.30;99.90;;;;;;5050434;28;20029;-63
2022/06/01 00:04:56;;;;;;;27.08;22.05;;;12.20;99.90;;;;;;5035263;28;20803;-63
2022/06/01 00:07:23;;;;;;;30.35;22.60;;;12.20;99.90;;;;;;5051747;28;20120;-63
2022/06/01 00:09:49;;;;;;;26.85;21.33;;;12.20;99.90;;;;;;5054201;28;20053;-63
2022/06/01 00:12:14;;;;;;;28.65;22.88;;;12.10;99.90;;;;;;5034507;28;20060;-63
2022/06/01 00:14:40;;;;;;;29.05;23.52;;;12.00;99.90;;;;;;5052782;28;20045;-63
2022/06/01 00:17:06;;;;;;;30.15;23.13;;;12.10;99.90;;;;;;5068724;28;20032;-63
2022/06/01 00:19:31;;;;;;;28.52;23.48;;;12.00;99.90;;;;;;5057682;28;20037;-63
2022/06/01 00:22:12;;;;;;;31.20;23.75;;;12.10;99.90;;;;;;5042875;28;20033;-63
2022/06/01 00:24:43;;;;;;;29.10;22.23;;;12.10;99.90;;;;;;5046051;28;20162;-63
2022/06/01 00:27:10;;;;;;;27.65;22.88;;;12.10;99.90;;;;;;5053792;28;20476;-63
2022/06/01 00:29:37;;;;;;;31.65;23.92;;;12.10;99.90;;;;;;5048688;28;20490;-63
2022/06/01 00:32:04;;;;;;;28.90;23.10;;;12.10;99.90;;;;;;5049624;28;20071;-63
2022/06/01 00:34:30;;;;;;;31.05;23.95;;;12.10;99.90;;;;;;5053330;28;20386;-63
2022/06/01 00:36:55;;;;;;;31.73;24.25;;;12.10;99.90;;;;;;5048724;28;20044;-63
2022/06/01 00:39:22;;;;;;;32.92;23.48;;;12.10;99.90;;;;;;5039499;28;20037;-63
2022/06/01 00:41:48;;;;;;;29.55;23.23;;;12.10;99.90;;;;;;5052641;28;20498;-63
2022/06/01 00:44:14;;;;;;;27.92;22.40;;;12.10;99.90;;;;;;5053247;28;20124;-63
2022/06/01 00:46:39;;;;;;;28.73;23.58;;;12.00;99.90;;;;;;5034581;28;20041;-63
2022/06/01 00:49:19;;;;;;;29.63;23.50;;;11.90;99.90;;;;;;5049180;28;20408;-63
2022/06/01 00:51:47;;;;;;;27.48;22.98;;;11.80;99.90;;;;;;5033036;28;20505;-63
2022/06/01 00:54:14;;;;;;;30.63;22.48;;;11.80;99.90;;;;;;5031743;28;20041;-63
2022/06/01 00:56:47;;;;;;;29.95;24.27;;;11.70;99.90;;;;;;5034229;28;20041;-63
2022/06/01 00:59:17;;;;;;;32.67;25.70;;;11.70;99.90;;;;;;5049627;28;20540;-63
2022/06/01 01:01:43;;;;;;;34.13;26.38;;;11.70;99.90;;;;;;5046817;28;20077;-63
2022/06/01 01:04:10;;;;;;;30.83;24.95;;;11.70;99.90;;;;;;5051450;28;20452;-63
2022/06/01 01:06:39;;;;;;;34.22;25.85;;;11.70;99.90;;;;;;5052613;28;20809;-63
2022/06/01 01:09:07;;;;;;;33.38;27.10;;;11.70;99.90;;;;;;5052942;28;20491;-63
2022/06/01 01:11:49;;;;;;;34.58;26.33;;;11.70;99.90;;;;;;5036941;28;20044;-63
2022/06/01 01:14:20;;;;;;;34.00;25.20;;;11.70;99.90;;;;;;5049988;28;20496;-63
2022/06/01 01:16:48;;;;;;;31.15;25.23;;;11.70;99.90;;;;;;5052791;28;20504;-63
2022/06/01 01:19:32;;;;;;;30.42;24.55;;;11.70;99.90;;;;;;5038775;28;20069;-63
2022/06/01 01:22:11;;;;;;;32.50;24.65;;;11.70;99.90;;;;;;5048570;28;20428;-63
2022/06/01 01:24:50;;;;;;;32.90;25.40;;;11.70;99.90;;;;;;5052962;28;20120;-63
2022/06/01 01:27:17;;;;;;;31.42;24.27;;;11.70;99.90;;;;;;5049509;28;20111;-63
2022/06/01 01:29:44;;;;;;;35.80;25.48;;;11.70;99.90;;;;;;5042019;28;20546;-63
2022/06/01 01:32:12;;;;;;;30.40;25.00;;;11.70;99.90;;;;;;5051533;28;20388;-63
2022/06/01 01:34:39;;;;;;;30.40;24.20;;;11.70;99.90;;;;;;5049535;28;20060;-63
2022/06/01 01:37:11;;;;;;;32.85;24.83;;;11.70;99.90;;;;;;5051522;28;20037;-63
2022/06/01 01:39:37;;;;;;;30.48;23.17;;;11.60;99.90;;;;;;5052217;28;20039;-62
2022/06/01 01:42:04;;;;;;;29.73;23.88;;;11.50;99.90;;;;;;5052041;28;20493;-63
2022/06/01 01:44:36;;;;;;;32.25;25.23;;;11.50;99.90;;;;;;5046519;28;20037;-63
2022/06/01 01:47:02;;;;;;;31.40;25.08;;;11.40;99.90;;;;;;5045863;28;20053;-63
2022/06/01 01:49:34;;;;;;;31.45;25.00;;;11.40;99.90;;;;;;5052083;28;20037;-63
2022/06/01 01:52:06;;;;;;;33.45;25.85;;;11.40;99.90;;;;;;5047853;28;20499;-63
2022/06/01 01:55:04;;;;;;;32.40;24.83;;;11.30;99.90;;;;;;5051100;28;20116;-63
2022/06/01 01:58:09;;;;;;;36.78;26.45;;;11.30;99.90;;;;;;5047840;28;20187;-63
2022/06/01 02:00:44;;;;;;;34.83;27.38;;;11.20;99.90;;;;;;5043569;28;20128;-63
2022/06/01 02:03:19;;;;;;;34.67;27.30;;;11.10;99.90;;;;;;5043545;28;20044;-63
2022/06/01 02:06:05;;;;;;;34.83;27.95;;;11.10;99.90;;;;;;5052028;28;20037;-63
2022/06/01 02:09:04;;;;;;;35.88;27.23;;;11.10;99.90;;;;;;5042355;28;20033;-63
2022/06/01 02:14:45;;;;;;;40.90;27.42;;;11.00;99.90;;;;;;5051881;28;20049;-63
2022/06/01 02:17:16;;;;;;;32.22;25.38;;;11.10;99.90;;;;;;5051540;28;20255;-63
2022/06/01 02:19:49;;;;;;;35.88;27.38;;;11.00;99.90;;;;;;5051231;28;20044;-62
2022/06/01 02:22:14;;;;;;;35.58;27.10;;;11.10;99.90;;;;;;5050449;28;20044;-63
2022/06/01 02:24:42;;;;;;;34.30;26.45;;;11.00;99.90;;;;;;5046643;28;20041;-63
2022/06/01 02:27:09;;;;;;;35.70;27.77;;;11.00;99.90;;;;;;5037487;28;20060;-63
2022/06/01 02:30:07;;;;;;;40.47;28.33;;;11.00;99.90;;;;;;5051742;28;20047;-63
2022/06/01 02:32:34;;;;;;;34.42;27.15;;;11.10;99.90;;;;;;5028274;28;20056;-63
2022/06/01 02:35:04;;;;;;;35.58;27.40;;;11.00;99.90;;;;;;5041647;28;20052;-63
2022/06/01 02:37:31;;;;;;;37.00;27.88;;;11.10;99.90;;;;;;5035045;28;20037;-63
2022/06/01 02:39:59;;;;;;;37.45;26.98;;;11.10;99.90;;;;;;5048633;28;20029;-63
2022/06/01 02:42:28;;;;;;;34.28;25.77;;;11.10;99.90;;;;;;5041139;28;20041;-63
2022/06/01 02:45:06;;;;;;;33.90;27.20;;;11.10;99.90;;;;;;5050813;28;20075;-63
2022/06/01 02:47:34;;;;;;;34.75;28.33;;;11.20;99.90;;;;;;5051177;28;20111;-63
2022/06/01 02:50:00;;;;;;;37.00;27.15;;;11.20;99.90;;;;;;5051349;28;20037;-63
2022/06/01 02:52:27;;;;;;;34.00;27.58;;;11.20;99.90;;;;;;5031705;28;20036;-63
2022/06/01 02:54:53;;;;;;;33.60;26.42;;;11.20;99.90;;;;;;5045406;28;20436;-63
2022/06/01 02:57:20;;;;;;;36.35;27.77;;;11.20;99.90;;;;;;5051394;28;20044;-64
2022/06/01 02:59:46;;;;;;;35.83;27.67;;;11.20;99.90;;;;;;5038737;28;20134;-63
2022/06/01 03:02:12;;;;;;;35.50;27.58;;;11.20;99.90;;;;;;5047736;28;20068;-63
2022/06/01 03:04:40;;;;;;;35.10;27.23;;;11.10;99.90;;;;;;5051537;28;20095;-63
2022/06/01 03:07:07;;;;;;;34.90;25.98;;;11.10;99.90;;;;;;5043334;28;20037;-63
2022/06/01 03:09:33;;;;;;;33.17;26.10;;;11.10;99.90;;;;;;5050711;28;20043;-63
2022/06/01 03:11:59;;;;;;;32.50;26.13;;;11.10;99.90;;;;;;5050624;28;20037;-63
2022/06/01 03:14:25;;;;;;;36.15;28.50;;;11.10;99.90;;;;;;5040847;28;20466;-63
2022/06/01 03:16:50;;;;;;;36.90;27.90;;;11.10;99.90;;;;;;5042642;28;20112;-63
2022/06/01 03:19:17;;;;;;;34.92;27.70;;;11.10;99.90;;;;;;5046879;28;20037;-63
2022/06/01 03:21:43;;;;;;;36.72;29.40;;;11.00;99.90;;;;;;5045063;28;20045;-64
2022/06/01 03:24:09;;;;;;;36.45;28.92;;;11.00;99.90;;;;;;5033014;28;20076;-62
2022/06/01 03:26:36;;;;;;;37.55;28.77;;;11.00;99.90;;;;;;5045730;28;20441;-63
2022/06/01 03:29:02;;;;;;;36.25;28.67;;;11.00;99.90;;;;;;5048150;28;20810;-63
2022/06/01 03:31:28;;;;;;;37.50;29.02;;;11.00;99.90;;;;;;5047412;28;20052;-63
2022/06/01 03:33:54;;;;;;;38.67;29.05;;;11.00;99.90;;;;;;5045931;28;20041;-63
2022/06/01 03:36:21;;;;;;;38.15;29.35;;;11.00;99.90;;;;;;5032609;28;20041;-63
2022/06/01 03:38:46;;;;;;;39.88;30.42;;;11.00;99.90;;;;;;5051059;28;20033;-64
2022/06/01 03:41:12;;;;;;;42.65;30.58;;;10.90;99.90;;;;;;5043768;28;20466;-64
2022/06/01 03:46:39;;;;;;;43.58;31.15;;;10.90;99.90;;;;;;4969843;28;20138;-63
2022/06/01 03:49:06;;;;;;;44.53;30.65;;;10.90;99.90;;;;;;5026026;28;20124;-63
2022/06/01 03:51:32;;;;;;;41.40;29.98;;;10.90;99.90;;;;;;5048867;28;20052;-63
2022/06/01 03:53:57;;;;;;;46.97;32.92;;;10.90;99.90;;;;;;5053937;28;20116;-63
2022/06/01 03:56:23;;;;;;;45.30;31.10;;;10.90;99.90;;;;;;5054632;28;20755;-64
2022/06/01 03:58:52;;;;;;;44.00;31.92;;;11.00;99.90;;;;;;5049703;28;20041;-63
2022/06/01 04:01:19;;;;;;;43.40;31.00;;;11.00;99.90;;;;;;5033701;28;20408;-64
2022/06/01 04:03:46;;;;;;;43.47;31.98;;;11.00;99.90;;;;;;5054294;28;20071;-63
2022/06/01 04:06:12;;;;;;;44.85;31.75;;;11.00;99.90;;;;;;5041897;28;20037;-63
2022/06/01 04:08:37;;;;;;;45.70;32.28;;;11.00;99.90;;;;;;5047902;28;20079;-63
2022/06/01 04:11:03;;;;;;;43.58;32.08;;;11.00;99.90;;;;;;5053859;28;20033;-63
2022/06/01 04:13:29;;;;;;;42.28;30.92;;;11.10;99.90;;;;;;5051610;28;20104;-63
2022/06/01 04:15:55;;;;;;;39.78;29.25;;;11.10;99.90;;;;;;5044264;28;20134;-63
2022/06/01 04:18:21;;;;;;;38.67;28.65;;;11.10;99.90;;;;;;5051832;28;20064;-63
2022/06/01 04:20:50;;;;;;;40.83;29.73;;;11.20;99.90;;;;;;5053980;28;20503;-63
2022/06/01 04:23:15;;;;;;;38.75;29.13;;;11.20;99.90;;;;;;5046517;28;20179;-63
2022/06/01 04:25:41;;;;;;;40.58;30.38;;;11.20;99.90;;;;;;5053591;28;20124;-63
2022/06/01 04:28:07;;;;;;;42.80;30.52;;;11.20;99.90;;;;;;5048309;28;20033;-63
2022/06/01 04:30:33;;;;;;;37.22;28.60;;;11.20;99.90;;;;;;5042378;28;20044;-63
2022/06/01 04:32:59;;;;;;;40.40;29.88;;;11.30;99.90;;;;;;5053401;28;20049;-63
2022/06/01 04:35:25;;;;;;;41.25;30.85;;;11.30;99.90;;;;;;5053462;28;20099;-63
2022/06/01 04:37:51;;;;;;;42.00;30.42;;;11.30;99.90;;;;;;5041841;28;20041;-63
2022/06/01 04:40:19;;;;;;;45.97;31.80;;;11.30;99.90;;;;;;5044079;28;20091;-63
2022/06/01 04:42:45;;;;;;;42.47;31.55;;;11.20;99.90;;;;;;5052924;28;20522;-64
2022/06/01 04:45:13;;;;;;;42.85;31.30;;;11.20;99.90;;;;;;5053824;28;20057;-63
2022/06/01 04:47:39;;;;;;;43.45;32.22;;;11.20;99.90;;;;;;5043222;28;20398;-64
2022/06/01 04:50:06;;;;;;;42.53;30.95;;;11.20;99.90;;;;;;5052561;28;20086;-63
2022/06/01 04:52:32;;;;;;;43.72;31.85;;;11.30;99.90;;;;;;5052750;28;20043;-64
2022/06/01 04:54:57;;;;;;;46.83;31.95;;;11.30;99.90;;;;;;5031163;28;20033;-62
2022/06/01 04:57:23;;;;;;;46.10;33.65;;;11.30;99.90;;;;;;5037303;28;20504;-63
2022/06/01 04:59:48;;;;;;;45.03;32.63;;;11.30;99.90;;;;;;5050194;28;20544;-63
2022/06/01 05:02:15;;;;;;;46.97;33.80;;;11.30;99.90;;;;;;5049652;28;20033;-62
2022/06/01 05:04:40;;;;;;;49.88;32.38;;;11.30;99.90;;;;;;5039138;28;20121;-64
2022/06/01 05:07:07;;;;;;;44.45;31.33;;;11.40;99.90;;;;;;5039570;28;20475;-64
2022/06/01 05:09:33;;;;;;;46.47;32.58;;;11.40;99.90;;;;;;5049421;28;20585;-64
2022/06/01 05:11:59;;;;;;;48.00;33.45;;;11.40;99.90;;;;;;5028300;28;20075;-64
2022/06/01 05:14:25;;;;;;;45.90;32.83;;;11.50;99.90;;;;;;5047873;28;20084;-65
2022/06/01 05:16:51;;;;;;;51.92;35.67;;;11.50;99.90;;;;;;5050235;28;20541;-64
2022/06/01 05:19:18;;;;;;;54.10;36.22;;;11.60;99.90;;;;;;5051381;28;20463;-64
2022/06/01 05:21:44;;;;;;;51.20;35.45;;;11.60;99.90;;;;;;5047347;28;20083;-63
2022/06/01 05:24:10;;;;;;;52.85;34.70;;;11.70;99.90;;;;;;5046787;28;20044;-64
2022/06/01 05:26:36;;;;;;;50.92;35.50;;;11.80;99.90;;;;;;5052518;28;20036;-64
2022/06/01 05:29:02;;;;;;;51.15;33.97;;;11.80;99.90;;;;;;5047534;28;20087;-64
2022/06/01 05:31:27;;;;;;;46.22;33.83;;;11.80;99.90;;;;;;5048759;28;20044;-64
2022/06/01 05:33:53;;;;;;;50.83;34.35;;;11.80;99.90;;;;;;5050556;28;20045;-64
2022/06/01 05:36:19;;;;;;;48.42;33.22;;;11.90;99.90;;;;;;5050034;28;20068;-63
2022/06/01 05:38:48;;;;;;;45.05;32.60;;;11.90;99.90;;;;;;5045777;28;20071;-66
2022/06/01 05:41:14;;;;;;;46.40;32.88;;;12.00;99.90;;;;;;5048182;28;20580;-64
2022/06/01 05:43:40;;;;;;;45.97;32.85;;;12.00;99.90;;;;;;5049230;28;20072;-65
2022/06/01 05:46:06;;;;;;;44.15;32.30;;;12.10;99.90;;;;;;5033883;28;20072;-64
2022/06/01 05:48:32;;;;;;;49.17;32.50;;;12.10;99.90;;;;;;5042335;28;20489;-68
2022/06/01 05:50:58;;;;;;;45.67;32.53;;;12.20;99.90;;;;;;5047741;28;20485;-64
2022/06/01 05:53:24;;;;;;;42.80;31.02;;;12.30;99.90;;;;;;5046066;28;20039;-63
2022/06/01 05:55:50;;;;;;;43.97;32.38;;;12.40;99.90;;;;;;5029402;28;20037;-64
2022/06/01 05:58:18;;;;;;;46.65;32.00;;;12.50;99.90;;;;;;5041655;28;20041;-64
2022/06/01 06:00:46;;;;;;;43.00;30.83;;;12.60;99.90;;;;;;5050767;28;20103;-65
2022/06/01 06:03:13;;;;;;;44.65;32.72;;;12.70;99.90;;;;;;5046741;28;20049;-64
2022/06/01 06:08:24;;;;;;;40.05;29.33;;;12.80;99.90;;;;;;5045447;28;20049;-64
2022/06/01 06:10:50;;;;;;;39.20;28.70;;;12.90;99.90;;;;;;5041345;28;20084;-63
2022/06/01 06:13:16;;;;;;;36.58;26.75;;;13.00;99.90;;;;;;5046143;28;20052;-64
2022/06/01 06:15:42;;;;;;;33.08;26.05;;;13.10;99.90;;;;;;5050161;28;20114;-64
2022/06/01 06:18:13;;;;;;;37.67;27.60;;;13.10;99.90;;;;;;5046849;28;20486;-63
2022/06/01 06:20:44;;;;;;;40.33;27.50;;;13.10;99.90;;;;;;5044008;28;20033;-64
2022/06/01 06:23:11;;;;;;;36.83;27.75;;;13.20;99.90;;;;;;5051096;28;20051;-63
2022/06/01 06:25:39;;;;;;;32.42;24.40;;;13.30;99.90;;;;;;5050816;28;20079;-63
2022/06/01 06:28:04;;;;;;;31.73;23.65;;;13.30;99.90;;;;;;5041648;28;20099;-64
2022/06/01 06:30:30;;;;;;;31.80;23.98;;;13.40;99.90;;;;;;5051103;28;20037;-64
2022/06/01 06:32:56;;;;;;;34.92;24.92;;;13.50;99.90;;;;;;5050948;28;20037;-64
2022/06/01 06:35:21;;;;;;;32.63;24.35;;;13.60;99.90;;;;;;5046628;28;20033;-64
2022/06/01 06:37:47;;;;;;;33.67;22.85;;;13.70;99.90;;;;;;5038822;28;20036;-64
2022/06/01 06:40:13;;;;;;;25.58;21.52;;;13.70;99.90;;;;;;5060526;28;20037;-63
2022/06/01 06:42:39;;;;;;;28.15;20.92;;;13.60;99.90;;;;;;5070975;28;20070;-64
2022/06/01 06:45:06;;;;;;;32.83;22.70;;;13.60;99.90;;;;;;5041249;28;20049;-63
2022/06/01 06:47:32;;;;;;;28.08;20.77;;;13.60;99.90;;;;;;5062257;28;20032;-64
2022/06/01 06:50:00;;;;;;;31.27;23.83;;;13.70;99.90;;;;;;5071333;28;20040;-64
2022/06/01 06:52:26;;;;;;;28.17;23.38;;;13.70;99.90;;;;;;5052194;28;20041;-64
2022/06/01 06:54:52;;;;;;;25.73;20.48;;;13.70;99.90;;;;;;5050574;28;20587;-68
2022/06/01 06:57:18;;;;;;;29.58;21.98;;;13.70;99.90;;;;;;5068795;28;20043;-65
2022/06/01 06:59:44;;;;;;;28.23;21.13;;;13.70;99.90;;;;;;5072184;28;20103;-65
2022/06/01 07:02:10;;;;;;;28.67;22.67;;;13.70;99.90;;;;;;5046562;28;20049;-64
2022/06/01 07:04:36;;;;;;;26.13;21.85;;;13.70;99.90;;;;;;5050853;28;20120;-65
2022/06/01 07:07:03;;;;;;;27.05;22.20;;;13.80;99.90;;;;;;5047021;28;20072;-69
2022/06/01 07:09:29;;;;;;;26.80;22.13;;;13.90;99.90;;;;;;5044696;28;20045;-66
2022/06/01 07:11:54;;;;;;;31.85;22.35;;;14.00;99.90;;;;;;5047579;28;20070;-68
2022/06/01 07:14:20;;;;;;;27.52;21.00;;;13.90;99.90;;;;;;5069050;28;20037;-68
2022/06/01 07:16:46;;;;;;;25.33;20.58;;;14.00;99.90;;;;;;5057130;28;20033;-68
2022/06/01 07:19:11;;;;;;;27.17;21.50;;;14.00;99.90;;;;;;5031275;28;20164;-66
2022/06/01 07:21:37;;;;;;;22.55;18.95;;;14.00;99.90;;;;;;5050499;28;20429;-68
2022/06/01 07:24:04;;;;;;;24.08;19.23;;;14.00;99.90;;;;;;5050886;28;20037;-65
2022/06/01 07:26:33;;;;;;;24.15;19.38;;;13.90;99.90;;;;;;5040897;28;20041;-67
2022/06/01 07:28:59;;;;;;;21.83;16.48;;;14.00;99.90;;;;;;5054666;28;20040;-68
2022/06/01 07:31:26;;;;;;;22.42;17.60;;;13.90;99.90;;;;;;5054133;28;20040;-69
2022/06/01 07:33:51;;;;;;;20.90;17.27;;;13.90;99.90;;;;;;5050261;28;20029;-67
2022/06/01 07:36:18;;;;;;;21.73;17.60;;;13.90;99.90;;;;;;5050686;28;20044;-68
2022/06/01 07:44:28;;;;;;;20.52;17.33;;;14.70;99.90;;;;;;5047936;28;20034;-67
2022/06/01 07:46:55;;;;;;;20.77;16.52;;;14.90;99.90;;;;;;5046517;28;20029;-68
2022/06/01 07:49:20;;;;;;;19.98;16.92;;;15.10;99.90;;;;;;5051791;28;20052;-66
2022/06/01 07:51:47;;;;;;;16.02;13.95;;;15.20;99.90;;;;;;5054379;28;20045;-67
2022/06/01 07:54:14;;;;;;;16.45;12.70;;;15.40;99.90;;;;;;5036916;28;20048;-65
2022/06/01 07:56:39;;;;;;;15.05;12.15;;;15.40;99.90;;;;;;5059723;28;20037;-63
2022/06/01 07:59:05;;;;;;;17.85;13.63;;;15.30;99.90;;;;;;5045502;28;20038;-65
2022/06/01 08:01:32;;;;;;;14.20;11.75;;;15.10;99.90;;;;;;5045636;28;20102;-64
2022/06/01 08:04:02;;;;;;;14.13;12.63;;;15.10;99.90;;;;;;5052720;28;20036;-66
2022/06/01 08:06:29;;;;;;;15.45;12.57;;;15.20;99.90;;;;;;5052456;28;20069;-66
2022/06/01 08:08:55;;;;;;;15.85;12.65;;;15.30;99.90;;;;;;5050748;28;20033;-65
2022/06/01 08:13:06;;;;;;;15.38;12.95;;;15.40;99.90;;;;;;5032077;28;20034;-64
2022/06/01 08:14:08;;;;;;;13.27;11.55;;;15.50;99.90;;;;;;5042196;28;20519;-63
2022/06/01 08:16:34;;;;;;;16.30;12.73;;;15.40;99.90;;;;;;5036414;28;20033;-63
2022/06/01 08:18:59;;;;;;;13.73;11.75;;;15.40;99.90;;;;;;5048874;28;20090;-63
2022/06/01 08:21:25;;;;;;;13.45;10.95;;;15.60;99.90;;;;;;5053608;28;20102;-65
2022/06/01 08:23:51;;;;;;;14.40;9.88;;;15.90;99.90;;;;;;5049644;28;20042;-64
2022/06/01 08:26:17;;;;;;;10.75;8.07;;;16.30;99.90;;;;;;5045214;28;20103;-65
2022/06/01 08:28:42;;;;;;;10.15;8.88;;;16.50;99.90;;;;;;5052474;28;20084;-65
2022/06/01 08:31:08;;;;;;;7.35;5.40;;;16.50;99.90;;;;;;5050338;28;20033;-64
2022/06/01 08:33:34;;;;;;;8.88;4.65;;;16.40;99.90;;;;;;5044632;28;20120;-66
2022/06/01 08:36:00;;;;;;;3.33;1.75;;;15.80;99.90;;;;;;5052534;28;20435;-64
2022/06/01 08:38:26;;;;;;;4.65;1.60;;;14.50;99.90;;;;;;5052965;28;20111;-62
2022/06/01 08:41:13;;;;;;;7.13;1.85;;;13.30;99.90;;;;;;5041319;28;20644;-63
2022/06/01 08:43:50;;;;;;;1.40;1.15;;;12.30;99.90;;;;;;5045041;28;20452;-63
2022/06/01 08:46:18;;;;;;;1.77;1.40;;;11.60;99.90;;;;;;5053523;28;20045;-63
2022/06/01 08:48:50;;;;;;;2.75;1.70;;;11.20;99.90;;;;;;5049868;28;20063;-63
2022/06/01 08:51:19;;;;;;;2.85;1.83;;;11.00;99.90;;;;;;5049641;28;20047;-63
2022/06/01 08:53:45;;;;;;;3.55;2.10;;;11.10;99.90;;;;;;5052172;28;20090;-63
2022/06/01 08:56:15;;;;;;;3.17;2.10;;;11.20;99.90;;;;;;5053329;28;20116;-64
2022/06/01 08:58:55;;;;;;;6.90;2.50;;;11.40;99.90;;;;;;5046940;28;20439;-68
2022/06/01 09:01:37;;;;;;;4.35;2.70;;;11.60;99.90;;;;;;5043932;28;20033;-63
2022/06/01 09:04:17;;;;;;;4.32;3.13;;;11.80;99.90;;;;;;5048300;28;20037;-62
2022/06/01 09:06:51;;;;;;;4.32;2.90;;;12.00;99.90;;;;;;5037439;28;20425;-63
2022/06/01 09:09:25;;;;;;;12.38;3.40;;;12.30;99.90;;;;;;5034666;28;20132;-62
2022/06/01 09:11:51;;;;;;;7.80;3.63;;;12.60;99.90;;;;;;5047165;28;20117;-62
2022/06/01 09:14:30;;;;;;;3.88;2.80;;;12.90;99.90;;;;;;5051649;28;20041;-62
2022/06/01 09:16:57;;;;;;;5.32;2.78;;;13.10;99.90;;;;;;5037302;28;20037;-63
2022/06/01 09:19:27;;;;;;;3.80;2.72;;;13.40;99.90;;;;;;5041962;28;20042;-63
2022/06/01 09:24:53;;;;;;;2.15;1.40;;;14.10;99.90;;;;;;5046285;28;20049;-63
2022/06/01 09:27:54;;;;;;;2.55;2.00;;;14.00;99.90;;;;;;5051656;28;20056;-60
2022/06/01 09:30:25;;;;;;;5.05;1.80;;;14.20;99.90;;;;;;5044301;28;20540;-60
2022/06/01 09:33:21;;;;;;;2.10;1.90;;;14.40;99.90;;;;;;5035399;28;20087;-59
2022/06/01 09:36:02;;;;;;;3.05;1.80;;;14.50;99.90;;;;;;5048592;28;20570;-60
2022/06/01 09:38:56;;;;;;;2.10;1.60;;;14.60;99.90;;;;;;5027764;28;20099;-62
2022/06/01 09:41:40;;;;;;;3.25;1.85;;;14.80;99.90;;;;;;5046062;28;20108;-61
2022/06/01 09:44:12;;;;;;;3.85;2.40;;;15.00;99.90;;;;;;5050867;28;20571;-61
2022/06/01 09:46:40;;;;;;;3.63;2.75;;;15.30;99.90;;;;;;5041641;28;20044;-61
2022/06/01 09:49:19;;;;;;;4.38;3.25;;;15.60;99.90;;;;;;5063671;28;20108;-63
2022/06/01 09:51:47;;;;;;;3.97;3.58;;;15.80;99.90;;;;;;5040962;28;20045;-62
2022/06/01 09:54:21;;;;;;;3.88;3.30;;;15.90;99.90;;;;;;5034722;28;20033;-63
2022/06/01 09:56:48;;;;;;;3.60;3.20;;;16.00;99.90;;;;;;5038961;28;20037;-63
2022/06/01 10:08:18;;;;;;;6.47;4.65;;;15.70;99.90;;;;;;5051065;28;20084;-62
2022/06/01 10:11:09;;;;;;;6.32;4.65;;;15.60;99.90;;;;;;5047681;28;20045;-62
2022/06/01 10:13:47;;;;;;;4.30;3.55;;;15.50;99.90;;;;;;5042724;28;20045;-63
2022/06/01 10:16:37;;;;;;;4.53;3.65;;;15.40;99.90;;;;;;5050895;28;20048;-63
2022/06/01 10:19:07;;;;;;;4.45;2.80;;;15.00;99.90;;;;;;5051555;28;20082;-63
2022/06/01 10:21:52;;;;;;;1.50;1.40;;;14.80;99.90;;;;;;5033574;28;20072;-63
2022/06/01 10:24:29;;;;;;;1.98;1.70;;;14.60;99.90;;;;;;5029205;28;20037;-63
2022/06/01 10:26:59;;;;;;;2.95;1.60;;;14.60;99.90;;;;;;5044902;28;20044;-63
2022/06/01 10:29:29;;;;;;;1.65;1.50;;;14.60;99.90;;;;;;5036667;28;20037;-63
2022/06/01 10:32:04;;;;;;;1.85;1.45;;;14.70;99.90;;;;;;5047694;28;20041;-63
2022/06/01 10:34:32;;;;;;;3.13;1.40;;;15.00;99.90;;;;;;5036383;28;20032;-63
2022/06/01 10:37:04;;;;;;;1.98;1.77;;;15.40;99.90;;;;;;5050951;28;20408;-63
2022/06/01 10:39:38;;;;;;;;;;;15.80;99.90;;;;;;5039078;28;20040;-63
2022/06/01 10:42:19;;;;;;;2.45;2.10;;;15.70;99.90;;;;;;5046324;28;20396;-64
2022/06/01 10:45:03;;;;;;;4.35;2.20;;;15.70;99.90;;;;;;5031469;28;20042;-63
2022/06/01 10:48:13;;;;;;;2.63;2.20;;;15.80;99.90;;;;;;5049259;28;20127;-63
2022/06/01 10:50:49;;;;;;;3.60;2.17;;;16.20;99.90;;;;;;5013017;28;20077;-61
2022/06/01 10:53:44;;;;;;;4.40;3.30;;;16.40;99.90;;;;;;5059687;28;20041;-63
2022/06/01 10:56:10;;;;;;;4.70;3.70;;;17.00;99.90;;;;;;5056855;28;20039;-64
2022/06/01 10:58:36;;;;;;;10.30;3.40;;;16.80;99.90;;;;;;5048933;28;20611;-63
2022/06/01 11:01:15;;;;;;;4.03;2.90;;;16.70;99.90;;;;;;5061932;28;20094;-62
2022/06/01 11:04:13;;;;;;;6.00;2.75;;;16.50;99.90;;;;;;5037330;28;20048;-64
2022/06/01 11:07:02;;;;;;;3.92;2.90;;;16.10;99.90;;;;;;5047015;28;20047;-63
2022/06/01 11:09:58;;;;;;;6.78;3.70;;;15.80;99.90;;;;;;5055078;28;20832;-63
2022/06/01 11:12:55;;;;;;;3.97;3.40;;;15.30;99.90;;;;;;5034452;28;20072;-65
2022/06/01 11:15:58;;;;;;;5.82;3.58;;;14.70;99.90;;;;;;5046227;28;20092;-62
2022/06/01 11:18:42;;;;;;;4.07;3.45;;;14.30;99.90;;;;;;5047202;28;20432;-61
2022/06/01 11:21:18;;;;;;;4.50;3.00;;;14.10;99.90;;;;;;5048044;28;20036;-62
2022/06/01 11:23:53;;;;;;;6.93;3.50;;;13.80;99.90;;;;;;5054354;28;20045;-61
2022/06/01 11:27:02;;;;;;;3.60;2.97;;;13.70;99.90;;;;;;5054779;28;20127;-62
2022/06/01 11:29:49;;;;;;;6.80;3.10;;;13.60;99.90;;;;;;5037788;28;20170;-61
2022/06/01 11:32:20;;;;;;;4.97;3.40;;;13.60;99.90;;;;;;5051021;28;20041;-61
2022/06/01 11:34:51;;;;;;;4.57;3.07;;;13.60;99.90;;;;;;5050164;28;20057;-61
2022/06/01 11:37:33;;;;;;;3.95;3.28;;;13.70;99.90;;;;;;5039909;28;20057;-60
2022/06/01 11:40:07;;;;;;;4.60;3.25;;;14.10;99.90;;;;;;5054331;28;20072;-60
2022/06/01 11:42:49;;;;;;;4.57;3.75;;;14.40;99.90;;;;;;5050175;28;20077;-60
2022/06/01 11:45:22;;;;;;;6.40;3.90;;;14.80;99.90;;;;;;5051830;28;20116;-62
2022/06/01 11:48:02;;;;;;;5.45;3.85;;;15.10;99.90;;;;;;5054211;28;20029;-63
2022/06/01 11:50:55;;;;;;;4.35;3.80;;;15.50;99.90;;;;;;5054494;28;20037;-63
2022/06/01 11:53:41;;;;;;;5.70;4.03;;;15.70;99.90;;;;;;5047869;28;20033;-62
2022/06/01 11:56:24;;;;;;;5.90;4.38;;;15.90;99.90;;;;;;5050541;28;20048;-62
2022/06/01 11:59:19;;;;;;;4.82;4.15;;;15.90;99.90;;;;;;5034290;28;20551;-62
2022/06/01 12:01:56;;;;;;;7.00;4.00;;;16.00;99.90;;;;;;5034660;28;20048;-62
2022/06/01 12:04:49;;;;;;;6.15;4.10;;;16.50;99.90;;;;;;5050811;28;20489;-61
2022/06/01 12:07:21;;;;;;;3.22;2.70;;;16.90;99.90;;;;;;5034505;28;20042;-61
2022/06/01 12:10:06;;;;;;;3.55;2.30;;;16.90;99.90;;;;;;5040385;28;20501;-61
2022/06/01 12:12:34;;;;;;;2.53;2.17;;;17.00;99.90;;;;;;5050347;28;20033;-61
2022/06/01 12:15:13;;;;;;;2.72;2.30;;;17.10;99.90;;;;;;5052335;28;20033;-62
2022/06/01 12:17:39;;;;;;;2.50;2.20;;;16.90;99.90;;;;;;5047700;28;20025;-62
2022/06/01 12:20:32;;;;;;;3.65;1.90;;;16.70;99.90;;;;;;5051476;28;20458;-61
2022/06/01 12:28:52;;;;;;;2.50;1.65;;;17.40;99.90;;;;;;5045100;28;20053;-61
2022/06/01 12:31:29;;;;;;;1.55;1.45;;;17.90;99.90;;;;;;5052236;28;20064;-61
2022/06/01 12:34:03;;;;;;;4.43;1.65;;;18.00;99.90;;;;;;5038957;28;20124;-62
2022/06/01 12:36:51;;;;;;;1.60;1.50;;;17.90;99.90;;;;;;5048389;28;20033;-63
2022/06/01 12:39:26;;;;;;;3.65;1.60;;;17.90;98.60;;;;;;5056328;28;20037;-62
2022/06/01 12:41:58;;;;;;;3.90;1.67;;;17.80;99.90;;;;;;5040138;28;20094;-62
2022/06/01 12:44:23;;;;;;;3.10;1.80;;;18.00;99.90;;;;;;5051953;28;20033;-62
2022/06/01 12:46:51;;;;;;;2.60;1.95;;;18.00;99.90;;;;;;5057859;28;20435;-61
2022/06/01 12:49:45;;;;;;;2.10;1.90;;;17.80;99.90;;;;;;5071889;28;20036;-61
2022/06/01 12:52:13;;;;;;;2.90;2.10;;;17.90;99.90;;;;;;5046852;28;20103;-61
2022/06/01 12:54:41;;;;;;;3.08;2.55;;;18.10;99.90;;;;;;5052382;28;20036;-62
2022/06/01 12:57:22;;;;;;;2.45;2.17;;;18.00;99.90;;;;;;5068224;28;20538;-62
2022/06/01 12:59:56;;;;;;;3.83;2.20;;;18.10;99.90;;;;;;5040901;28;20044;-62
2022/06/01 13:02:22;;;;;;;2.55;2.00;;;18.00;99.30;;;;;;5049872;28;20044;-62
2022/06/01 13:04:53;;;;;;;2.83;2.20;;;18.10;99.90;;;;;;5052256;28;20044;-62
2022/06/01 13:07:20;;;;;;;2.80;1.83;;;18.10;99.90;;;;;;5044830;28;20123;-62
2022/06/01 13:09:58;;;;;;;3.70;2.40;;;17.80;99.90;;;;;;5052082;28;20329;-62
2022/06/01 13:12:29;;;;;;;3.33;2.60;;;17.50;99.90;;;;;;5052938;28;20404;-62
2022/06/01 13:15:16;;;;;;;2.90;2.30;;;17.50;99.90;;;;;;5038055;28;20037;-62
2022/06/01 13:17:53;;;;;;;3.70;2.60;;;17.50;99.90;;;;;;5039497;28;20045;-62
2022/06/01 13:20:33;;;;;;;3.38;2.45;;;17.70;99.90;;;;;;5059455;28;20040;-62
2022/06/01 13:23:00;;;;;;;4.30;2.13;;;17.50;99.90;;;;;;5041178;28;20041;-62
2022/06/01 13:25:32;;;;;;;3.45;2.30;;;17.50;99.90;;;;;;5044331;28;20565;-62